createdAt,value
2023-09-09T00:01:01.563Z,59.10
2023-09-09T00:03:28.586Z,59.14
2023-09-09T00:05:55.595Z,59.10
2023-09-09T00:08:23.288Z,59.19
2023-09-09T00:10:50.259Z,59.45
2023-09-09T00:13:17.506Z,58.73
2023-09-09T00:15:44.546Z,59.33
2023-09-09T00:18:11.449Z,59.37
2023-09-09T00:20:40.620Z,59.32
2023-09-09T00:23:11.147Z,59.31
2023-09-09T00:25:42.836Z,59.16
2023-09-09T00:28:11.869Z,59.27
2023-09-09T00:30:40.455Z,59.93
2023-09-09T00:33:10.643Z,59.96
2023-09-09T00:35:40.406Z,59.69
2023-09-09T00:38:09.136Z,60.25
2023-09-09T00:40:36.906Z,60.17
2023-09-09T00:43:04.324Z,60.43
2023-09-09T00:45:31.701Z,60.76
2023-09-09T00:47:59.897Z,60.74
2023-09-09T00:50:27.091Z,60.65
2023-09-09T00:52:54.205Z,60.97
2023-09-09T00:55:21.605Z,60.83
2023-09-09T00:57:48.577Z,60.96
2023-09-09T01:00:15.792Z,61.09
2023-09-09T01:02:43.532Z,60.95
2023-09-09T01:05:13.666Z,60.95
2023-09-09T01:07:45.866Z,60.84
2023-09-09T01:10:13.964Z,61.34
2023-09-09T01:12:42.748Z,61.12
2023-09-09T01:15:12.917Z,61.13
2023-09-09T01:17:43.108Z,61.51
2023-09-09T01:20:21.221Z,61.28
2023-09-09T01:22:51.659Z,61.38
2023-09-09T01:25:18.995Z,61.84
2023-09-09T01:27:46.396Z,61.72
2023-09-09T01:30:13.722Z,61.77
2023-09-09T01:32:41.050Z,61.85
2023-09-09T01:35:11.530Z,61.87
2023-09-09T01:37:38.497Z,62.10
2023-09-09T01:40:10.391Z,61.79
2023-09-09T01:42:38.745Z,62.49
2023-09-09T01:45:07.893Z,62.25
2023-09-09T01:47:35.196Z,62.49
2023-09-09T01:50:03.350Z,62.57
2023-09-09T01:52:31.508Z,62.71
2023-09-09T01:54:58.473Z,62.74
2023-09-09T01:57:28.243Z,63.32
2023-09-09T01:59:56.255Z,63.00
2023-09-09T02:02:23.702Z,63.06
2023-09-09T02:04:50.906Z,63.32
2023-09-09T02:07:18.024Z,63.22
2023-09-09T02:09:46.110Z,63.70
2023-09-09T02:12:12.995Z,63.49
2023-09-09T02:14:39.995Z,63.40
2023-09-09T02:17:07.078Z,63.62
2023-09-09T02:19:34.840Z,63.69
2023-09-09T02:22:04.313Z,63.60
2023-09-09T02:24:31.512Z,63.86
2023-09-09T02:26:58.778Z,63.80
2023-09-09T02:29:25.822Z,63.97
2023-09-09T02:31:52.828Z,63.82
2023-09-09T02:34:19.732Z,64.04
2023-09-09T02:37:36.732Z,63.79
2023-09-09T02:40:05.261Z,63.81
2023-09-09T02:42:32.197Z,63.74
2023-09-09T02:44:59.405Z,64.10
2023-09-09T02:47:27.232Z,64.16
2023-09-09T02:49:55.122Z,64.44
2023-09-09T02:52:22.540Z,64.46
2023-09-09T02:54:49.683Z,64.11
2023-09-09T02:57:17.905Z,64.36
2023-09-09T02:59:44.896Z,64.26
2023-09-09T03:02:14.153Z,64.57
2023-09-09T03:04:41.953Z,64.76
2023-09-09T03:07:08.974Z,64.72
2023-09-09T03:09:37.536Z,64.92
2023-09-09T03:12:06.996Z,64.80
2023-09-09T03:14:34.373Z,64.66
2023-09-09T03:17:01.521Z,64.62
2023-09-09T03:19:30.304Z,64.80
2023-09-09T03:21:58.922Z,64.97
2023-09-09T03:24:25.985Z,64.60
2023-09-09T03:26:52.996Z,64.99
2023-09-09T03:29:20.246Z,64.91
2023-09-09T03:31:47.337Z,64.71
2023-09-09T03:34:14.313Z,64.87
2023-09-09T03:36:41.599Z,64.96
2023-09-09T03:39:08.633Z,64.69
2023-09-09T03:41:35.786Z,65.02
2023-09-09T03:44:04.008Z,65.10
2023-09-09T03:46:31.321Z,64.72
2023-09-09T03:49:00.902Z,64.68
2023-09-09T03:51:28.400Z,64.69
2023-09-09T03:53:55.620Z,65.06
2023-09-09T03:56:22.590Z,64.94
2023-09-09T03:58:50.963Z,64.93
2023-09-09T04:01:18.034Z,65.12
2023-09-09T04:03:45.853Z,65.24
2023-09-09T04:06:18.538Z,64.79
2023-09-09T04:08:47.008Z,65.40
2023-09-09T04:11:15.675Z,65.48
2023-09-09T04:13:43.409Z,65.05
2023-09-09T04:16:12.572Z,65.46
2023-09-09T04:18:46.567Z,65.63
2023-09-09T04:21:15.950Z,65.68
2023-09-09T04:23:42.968Z,65.52
2023-09-09T04:26:10.569Z,65.41
2023-09-09T04:28:37.516Z,65.53
2023-09-09T04:31:05.078Z,65.43
2023-09-09T04:33:36.246Z,64.90
2023-09-09T04:36:03.762Z,64.83
2023-09-09T04:38:31.267Z,64.86
2023-09-09T04:40:59.471Z,64.97
2023-09-09T04:43:27.293Z,65.11
2023-09-09T04:45:54.385Z,65.15
2023-09-09T04:48:21.430Z,65.04
2023-09-09T04:50:49.060Z,64.80
2023-09-09T04:53:16.289Z,65.03
2023-09-09T04:55:43.654Z,64.93
2023-09-09T04:58:12.124Z,64.66
2023-09-09T05:00:40.435Z,64.71
2023-09-09T05:03:07.830Z,64.63
2023-09-09T05:05:35.085Z,64.62
2023-09-09T05:08:02.144Z,64.95
2023-09-09T05:10:31.443Z,64.89
2023-09-09T05:12:58.880Z,64.64
2023-09-09T05:15:25.952Z,64.73
2023-09-09T05:17:53.150Z,64.85
2023-09-09T05:20:20.834Z,64.76
2023-09-09T05:22:47.757Z,64.63
2023-09-09T05:25:15.041Z,64.48
2023-09-09T05:27:42.998Z,65.06
2023-09-09T05:30:10.113Z,64.91
2023-09-09T05:32:37.904Z,64.85
2023-09-09T05:35:05.576Z,65.26
2023-09-09T05:37:33.413Z,65.25
2023-09-09T05:40:04.160Z,65.18
2023-09-09T05:42:31.707Z,65.35
2023-09-09T05:44:58.949Z,64.99
2023-09-09T05:47:25.894Z,65.16
2023-09-09T05:49:52.767Z,65.13
2023-09-09T05:52:19.845Z,64.86
2023-09-09T05:54:46.884Z,65.10
2023-09-09T05:57:13.979Z,65.02
2023-09-09T05:59:41.487Z,65.04
2023-09-09T06:02:10.145Z,65.07
2023-09-09T06:04:37.286Z,64.86
2023-09-09T06:07:05.202Z,65.09
2023-09-09T06:09:32.181Z,64.82
2023-09-09T06:11:59.733Z,64.93
2023-09-09T06:14:26.679Z,64.76
2023-09-09T06:16:53.719Z,64.96
2023-09-09T06:19:21.064Z,64.82
2023-09-09T06:21:48.479Z,64.87
2023-09-09T06:24:15.812Z,64.39
2023-09-09T06:26:44.411Z,64.37
2023-09-09T06:29:11.632Z,64.35
2023-09-09T06:31:38.617Z,64.67
2023-09-09T06:34:05.957Z,64.29
2023-09-09T06:36:32.941Z,64.30
2023-09-09T06:39:00.100Z,64.07
2023-09-09T06:41:27.205Z,64.17
2023-09-09T06:43:54.404Z,63.98
2023-09-09T06:46:21.395Z,63.97
2023-09-09T06:48:48.522Z,63.86
2023-09-09T06:51:17.432Z,63.83
2023-09-09T06:53:44.356Z,63.72
2023-09-09T06:56:11.538Z,63.42
2023-09-09T06:58:38.639Z,63.34
2023-09-09T07:01:05.910Z,63.46
2023-09-09T07:03:33.181Z,63.29
2023-09-09T07:06:01.598Z,62.79
2023-09-09T07:08:29.426Z,62.81
2023-09-09T07:10:57.875Z,63.09
2023-09-09T07:13:25.228Z,63.13
2023-09-09T07:15:53.762Z,62.92
2023-09-09T07:18:22.096Z,63.02
2023-09-09T07:20:50.408Z,62.37
2023-09-09T07:23:18.451Z,62.34
2023-09-09T07:25:46.303Z,62.08
2023-09-09T07:28:13.580Z,62.15
2023-09-09T07:30:40.549Z,61.99
2023-09-09T07:33:08.130Z,61.87
2023-09-09T07:35:37.298Z,62.03
2023-09-09T07:38:06.127Z,61.61
2023-09-09T07:40:33.569Z,61.41
2023-09-09T07:43:01.085Z,61.43
2023-09-09T07:45:28.866Z,60.95
2023-09-09T07:47:57.528Z,60.75
2023-09-09T07:50:24.744Z,60.55
2023-09-09T07:52:51.979Z,60.48
2023-09-09T07:55:19.032Z,60.48
2023-09-09T07:57:46.050Z,60.11
2023-09-09T08:00:13.383Z,59.87
2023-09-09T08:02:40.580Z,59.81
2023-09-09T08:05:08.127Z,59.25
2023-09-09T08:07:35.694Z,59.09
2023-09-09T08:10:02.767Z,58.88
2023-09-09T08:12:30.800Z,59.21
2023-09-09T08:15:08.687Z,58.30
2023-09-09T08:17:36.209Z,57.89
2023-09-09T08:20:08.857Z,57.90
2023-09-09T08:22:37.291Z,57.46
2023-09-09T08:25:06.228Z,57.32
2023-09-09T08:27:33.662Z,57.49
2023-09-09T08:30:00.643Z,57.11
2023-09-09T08:32:29.812Z,56.99
2023-09-09T08:34:58.119Z,56.61
2023-09-09T08:37:25.056Z,56.46
2023-09-09T08:39:55.980Z,56.51
2023-09-09T08:42:48.735Z,55.78
2023-09-09T08:45:32.847Z,56.22
2023-09-09T08:48:00.416Z,55.93
2023-09-09T08:50:28.772Z,55.52
2023-09-09T08:52:55.868Z,54.99
2023-09-09T08:55:22.944Z,55.02
2023-09-09T08:57:50.400Z,55.38
2023-09-09T09:00:17.766Z,55.27
2023-09-09T09:02:45.642Z,54.55
2023-09-09T09:05:13.567Z,55.19
2023-09-09T09:07:40.620Z,54.85
2023-09-09T09:10:08.106Z,54.37
2023-09-09T09:12:37.010Z,54.08
2023-09-09T09:15:05.072Z,53.72
2023-09-09T09:17:34.115Z,53.48
2023-09-09T09:20:01.182Z,53.29
2023-09-09T09:22:29.055Z,52.88
2023-09-09T09:24:55.981Z,52.21
2023-09-09T09:27:22.958Z,52.34
2023-09-09T09:29:50.151Z,52.25
2023-09-09T09:32:20.154Z,51.78
2023-09-09T09:34:48.280Z,51.94
2023-09-09T09:37:16.598Z,51.92
2023-09-09T09:39:44.835Z,51.22
2023-09-09T09:42:12.939Z,51.34
2023-09-09T09:44:40.047Z,51.23
2023-09-09T09:47:08.795Z,51.14
2023-09-09T09:49:45.648Z,50.44
2023-09-09T09:52:23.901Z,50.30
2023-09-09T09:54:54.611Z,50.08
2023-09-09T09:57:22.423Z,50.25
2023-09-09T09:59:49.534Z,49.99
2023-09-09T10:02:16.928Z,50.21
2023-09-09T10:04:44.496Z,50.23
2023-09-09T10:07:13.665Z,49.86
2023-09-09T10:09:58.112Z,50.01
2023-09-09T10:12:49.328Z,49.65
2023-09-09T10:15:23.400Z,49.84
2023-09-09T10:17:53.041Z,49.32
2023-09-09T10:20:23.820Z,48.54
2023-09-09T10:22:51.975Z,48.91
2023-09-09T10:25:19.160Z,48.17
2023-09-09T10:27:46.190Z,48.02
2023-09-09T10:30:13.495Z,47.60
2023-09-09T10:32:41.704Z,46.53
2023-09-09T10:35:09.208Z,45.52
2023-09-09T10:37:38.004Z,45.04
2023-09-09T10:40:07.604Z,44.68
2023-09-09T10:42:39.378Z,44.63
2023-09-09T10:45:34.403Z,44.37
2023-09-09T10:48:06.006Z,44.18
2023-09-09T10:50:47.163Z,43.66
2023-09-09T10:53:16.211Z,43.48
2023-09-09T10:55:44.007Z,43.31
2023-09-09T10:58:11.018Z,43.40
2023-09-09T11:00:43.016Z,43.32
2023-09-09T11:03:11.671Z,43.24
2023-09-09T11:06:01.480Z,43.06
2023-09-09T11:08:29.647Z,42.58
2023-09-09T11:11:09.931Z,41.57
2023-09-09T11:13:54.541Z,41.62
2023-09-09T11:16:28.858Z,41.36
2023-09-09T11:18:57.615Z,41.80
2023-09-09T11:21:24.799Z,41.79
2023-09-09T11:23:52.797Z,41.72
2023-09-09T11:26:20.205Z,41.51
2023-09-09T11:28:48.953Z,41.89
2023-09-09T11:31:16.897Z,40.63
2023-09-09T11:33:44.215Z,40.35
2023-09-09T11:36:11.232Z,40.55
2023-09-09T11:38:41.115Z,40.68
2023-09-09T11:41:08.265Z,40.36
2023-09-09T11:43:35.178Z,40.06
2023-09-09T11:46:02.245Z,41.09
2023-09-09T11:48:29.238Z,40.62
2023-09-09T11:50:57.628Z,39.69
2023-09-09T11:53:24.602Z,39.51
2023-09-09T11:55:55.053Z,39.80
2023-09-09T11:58:22.195Z,39.75
2023-09-09T12:00:49.237Z,39.41
2023-09-09T12:03:22.089Z,38.99
2023-09-09T12:05:52.401Z,38.85
2023-09-09T12:08:19.706Z,38.57
2023-09-09T12:10:46.704Z,37.67
2023-09-09T12:13:16.096Z,37.25
2023-09-09T12:15:56.415Z,37.78
2023-09-09T12:18:31.353Z,37.51
2023-09-09T12:21:08.964Z,36.71
2023-09-09T12:23:38.195Z,36.58
2023-09-09T12:26:12.674Z,36.04
2023-09-09T12:28:47.861Z,35.83
2023-09-09T12:31:15.205Z,35.29
2023-09-09T12:33:48.019Z,34.78
2023-09-09T12:36:19.738Z,34.80
2023-09-09T12:38:48.596Z,35.44
2023-09-09T12:41:20.529Z,35.25
2023-09-09T12:43:57.070Z,35.04
2023-09-09T12:46:28.652Z,35.71
2023-09-09T12:49:00.103Z,35.84
2023-09-09T12:51:31.943Z,35.90
2023-09-09T12:54:00.225Z,35.36
2023-09-09T12:56:27.189Z,35.58
2023-09-09T12:58:54.164Z,35.25
2023-09-09T13:01:21.167Z,34.98
2023-09-09T13:03:48.093Z,35.18
2023-09-09T13:06:15.265Z,35.42
2023-09-09T13:08:42.130Z,34.77
2023-09-09T13:11:09.078Z,34.12
2023-09-09T13:13:38.788Z,34.58
2023-09-09T13:16:08.069Z,34.06
2023-09-09T13:18:35.217Z,33.63
2023-09-09T13:21:05.041Z,33.36
2023-09-09T13:23:32.460Z,33.39
2023-09-09T13:26:01.726Z,33.11
2023-09-09T13:28:28.907Z,32.99
2023-09-09T13:31:06.232Z,32.18
2023-09-09T13:33:36.075Z,31.29
2023-09-09T13:36:03.316Z,31.60
2023-09-09T13:38:30.468Z,31.64
2023-09-09T13:40:57.950Z,31.69
2023-09-09T13:43:25.085Z,30.97
2023-09-09T13:46:09.016Z,30.28
2023-09-09T13:48:39.784Z,29.92
2023-09-09T13:51:32.486Z,30.09
2023-09-09T13:54:09.086Z,30.16
2023-09-09T13:57:08.380Z,29.56
2023-09-09T13:59:38.230Z,31.08
2023-09-09T14:02:09.826Z,31.81
2023-09-09T14:04:39.696Z,31.62
2023-09-09T14:07:06.636Z,30.03
2023-09-09T14:09:39.572Z,29.28
2023-09-09T14:12:33.441Z,29.33
2023-09-09T14:15:30.088Z,29.11
2023-09-09T14:17:57.140Z,29.43
2023-09-09T14:20:24.257Z,29.29
2023-09-09T14:22:51.481Z,28.78
2023-09-09T14:25:18.767Z,28.73
2023-09-09T14:27:46.098Z,28.98
2023-09-09T14:30:13.277Z,28.55
2023-09-09T14:32:45.418Z,28.65
2023-09-09T14:35:31.165Z,28.48
2023-09-09T14:38:16.026Z,27.79
2023-09-09T14:40:56.680Z,27.41
2023-09-09T14:43:34.651Z,27.08
2023-09-09T14:46:25.713Z,27.34
2023-09-09T14:49:05.549Z,27.36
2023-09-09T14:51:46.618Z,27.34
2023-09-09T14:54:16.168Z,26.40
2023-09-09T14:56:43.214Z,26.67
2023-09-09T15:00:00.770Z,26.89
2023-09-09T15:02:38.992Z,26.33
2023-09-09T15:05:23.955Z,25.93
2023-09-09T15:07:57.237Z,25.88
2023-09-09T15:10:37.114Z,25.56
2023-09-09T15:13:26.656Z,24.97
2023-09-09T15:15:54.025Z,24.98
2023-09-09T15:18:24.034Z,24.78
2023-09-09T15:20:51.277Z,25.23
2023-09-09T15:23:18.354Z,24.98
2023-09-09T15:25:45.318Z,25.29
2023-09-09T15:28:20.396Z,25.73
2023-09-09T15:30:50.365Z,25.93
2023-09-09T15:33:29.911Z,26.19
2023-09-09T15:35:59.629Z,26.40
2023-09-09T15:38:48.598Z,26.33
2023-09-09T15:43:48.591Z,26.39
2023-09-09T15:44:17.555Z,26.39
2023-09-09T15:46:44.649Z,28.68
2023-09-09T15:49:16.200Z,31.04
2023-09-09T15:51:53.230Z,30.00
2023-09-09T15:54:31.028Z,29.57
2023-09-09T15:57:08.187Z,29.05
2023-09-09T15:59:37.382Z,29.12
2023-09-09T16:02:05.784Z,29.31
2023-09-09T16:04:32.858Z,29.32
2023-09-09T16:06:59.809Z,29.23
2023-09-09T16:09:31.794Z,29.20
2023-09-09T16:12:00.196Z,29.79
2023-09-09T16:14:28.148Z,30.35
2023-09-09T16:16:55.463Z,30.30
2023-09-09T16:19:24.763Z,30.17
2023-09-09T16:21:54.518Z,30.17
2023-09-09T16:24:22.996Z,30.07
2023-09-09T16:26:50.012Z,30.30
2023-09-09T16:29:17.444Z,30.34
2023-09-09T16:31:49.449Z,30.56
2023-09-09T16:34:16.613Z,30.38
2023-09-09T16:36:43.601Z,30.71
2023-09-09T16:39:11.249Z,31.03
2023-09-09T16:41:38.406Z,30.93
2023-09-09T16:44:08.602Z,31.31
2023-09-09T16:46:35.995Z,31.54
2023-09-09T16:49:04.581Z,31.96
2023-09-09T16:51:42.319Z,31.83
2023-09-09T16:54:11.765Z,31.91
2023-09-09T16:56:38.791Z,30.68
2023-09-09T16:59:07.128Z,31.24
2023-09-09T17:01:36.607Z,32.16
2023-09-09T17:04:08.743Z,32.69
2023-09-09T17:06:56.262Z,33.24
2023-09-09T17:09:26.278Z,33.32
2023-09-09T17:11:55.748Z,34.09
2023-09-09T17:14:23.130Z,33.99
2023-09-09T17:17:00.206Z,34.79
2023-09-09T17:19:32.013Z,35.14
2023-09-09T17:22:00.378Z,35.34
2023-09-09T17:24:37.982Z,35.50
2023-09-09T17:27:23.986Z,35.72
2023-09-09T17:29:55.949Z,36.09
2023-09-09T17:32:45.627Z,36.16
2023-09-09T17:35:32.784Z,36.86
2023-09-09T17:41:03.677Z,37.14
2023-09-09T17:42:15.610Z,37.53
2023-09-09T17:45:28.524Z,38.14
2023-09-09T17:48:28.504Z,38.57
2023-09-09T17:51:30.815Z,39.18
2023-09-09T17:54:10.420Z,39.75
2023-09-09T17:56:46.862Z,40.41
2023-09-09T18:00:12.907Z,40.23
2023-09-09T18:02:40.462Z,41.25
2023-09-09T18:05:36.413Z,41.34
2023-09-09T18:08:04.553Z,41.68
2023-09-09T18:10:58.965Z,42.30
2023-09-09T18:13:46.385Z,42.37
2023-09-09T18:16:27.417Z,43.32
2023-09-09T18:19:12.842Z,43.40
2023-09-09T18:22:14.505Z,44.13
2023-09-09T18:24:51.780Z,43.80
2023-09-09T18:29:44.733Z,44.12
2023-09-09T18:30:12.322Z,44.05
2023-09-09T18:32:41.427Z,43.81
2023-09-09T18:35:08.929Z,44.07
2023-09-09T18:37:37.216Z,44.35
2023-09-09T18:40:05.558Z,45.00
2023-09-09T18:42:33.556Z,45.57
2023-09-09T18:45:00.585Z,45.63
2023-09-09T18:47:29.905Z,46.56
2023-09-09T18:49:56.997Z,46.32
2023-09-09T18:52:24.339Z,46.83
2023-09-09T18:54:51.928Z,47.36
2023-09-09T18:57:19.088Z,47.34
2023-09-09T18:59:46.931Z,47.36
2023-09-09T19:02:16.322Z,47.21
2023-09-09T19:04:44.561Z,47.88
2023-09-09T19:07:12.953Z,48.04
2023-09-09T19:09:40.066Z,48.18
2023-09-09T19:12:08.965Z,48.31
2023-09-09T19:14:41.289Z,48.81
2023-09-09T19:17:11.800Z,48.84
2023-09-09T19:19:38.802Z,49.26
2023-09-09T19:22:06.122Z,49.85
2023-09-09T19:24:34.107Z,49.91
2023-09-09T19:27:02.048Z,49.97
2023-09-09T19:29:30.042Z,50.06
2023-09-09T19:31:57.118Z,49.50
2023-09-09T19:34:24.342Z,50.12
2023-09-09T19:36:53.147Z,49.97
2023-09-09T19:39:20.242Z,50.79
2023-09-09T19:41:47.415Z,50.89
2023-09-09T19:44:15.720Z,51.33
2023-09-09T19:46:42.690Z,51.35
2023-09-09T19:49:11.970Z,51.40
2023-09-09T19:51:39.824Z,51.70
2023-09-09T19:54:07.049Z,51.69
2023-09-09T19:56:36.388Z,51.72
2023-09-09T19:59:06.560Z,52.15
2023-09-09T20:01:33.812Z,51.77
2023-09-09T20:04:03.461Z,52.10
2023-09-09T20:06:33.049Z,51.52
2023-09-09T20:09:00.138Z,52.01
2023-09-09T20:11:27.124Z,51.91
2023-09-09T20:13:54.070Z,52.08
2023-09-09T20:16:21.146Z,52.15
2023-09-09T20:18:49.525Z,52.47
2023-09-09T20:21:16.601Z,53.09
2023-09-09T20:23:45.017Z,52.71
2023-09-09T20:26:17.929Z,52.81
2023-09-09T20:29:00.752Z,52.76
2023-09-09T20:31:30.599Z,53.31
2023-09-09T20:33:57.866Z,52.99
2023-09-09T20:36:27.235Z,53.52
2023-09-09T20:38:56.609Z,53.54
2023-09-09T20:41:23.660Z,53.65
2023-09-09T20:43:50.820Z,53.48
2023-09-09T20:46:17.950Z,53.91
2023-09-09T20:48:45.031Z,53.88
2023-09-09T20:51:11.939Z,54.40
2023-09-09T20:53:39.146Z,54.22
2023-09-09T20:56:11.407Z,54.74
2023-09-09T20:58:39.871Z,55.04
2023-09-09T21:01:07.280Z,54.65
2023-09-09T21:03:34.371Z,54.99
2023-09-09T21:06:01.557Z,54.95
2023-09-09T21:08:28.616Z,55.59
2023-09-09T21:10:55.626Z,55.50
2023-09-09T21:13:22.931Z,55.61
2023-09-09T21:15:50.594Z,55.53
2023-09-09T21:18:18.595Z,55.58
2023-09-09T21:20:46.224Z,55.63
2023-09-09T21:23:14.069Z,55.87
2023-09-09T21:25:41.469Z,55.95
2023-09-09T21:28:09.179Z,56.07
2023-09-09T21:30:36.588Z,56.18
2023-09-09T21:33:05.991Z,56.26
2023-09-09T21:35:33.285Z,55.91
2023-09-09T21:38:00.302Z,56.08
2023-09-09T21:40:27.396Z,56.45
2023-09-09T21:42:54.821Z,56.57
2023-09-09T21:45:24.236Z,56.59
2023-09-09T21:47:52.626Z,56.67
2023-09-09T21:50:19.847Z,56.98
2023-09-09T21:52:47.035Z,57.28
2023-09-09T21:55:14.076Z,57.21
2023-09-09T21:57:41.117Z,57.66
2023-09-09T22:00:21.653Z,57.66
2023-09-09T22:02:52.153Z,57.81
2023-09-09T22:05:21.273Z,58.17
2023-09-09T22:07:48.307Z,58.28
2023-09-09T22:10:15.715Z,58.42
2023-09-09T22:12:42.909Z,58.28
2023-09-09T22:15:10.743Z,58.65
2023-09-09T22:17:38.976Z,58.48
2023-09-09T22:20:13.411Z,58.39
2023-09-09T22:22:41.282Z,58.54
2023-09-09T22:25:11.002Z,58.45
2023-09-09T22:27:38.085Z,58.18
2023-09-09T22:30:07.056Z,58.25
2023-09-09T22:32:34.678Z,58.14
2023-09-09T22:35:05.704Z,58.30
2023-09-09T22:37:33.262Z,58.36
2023-09-09T22:40:00.356Z,58.43
2023-09-09T22:42:27.632Z,58.65
2023-09-09T22:44:54.772Z,58.57
2023-09-09T22:47:21.796Z,58.55
2023-09-09T22:49:51.924Z,58.65
2023-09-09T22:52:19.332Z,58.50
2023-09-09T22:54:46.327Z,58.65
2023-09-09T22:57:13.281Z,58.46
2023-09-09T22:59:40.400Z,58.86
2023-09-09T23:02:07.562Z,58.63
2023-09-09T23:04:34.978Z,59.19
2023-09-09T23:07:02.094Z,59.36
2023-09-09T23:09:32.225Z,58.94
2023-09-09T23:12:00.392Z,59.00
2023-09-09T23:14:27.683Z,59.43
2023-09-09T23:16:54.993Z,59.59
2023-09-09T23:19:22.432Z,59.60
2023-09-09T23:21:49.421Z,59.66
2023-09-09T23:24:16.381Z,59.91
2023-09-09T23:26:43.387Z,59.73
2023-09-09T23:29:10.493Z,60.19
2023-09-09T23:31:40.111Z,60.02
2023-09-09T23:34:07.204Z,60.33
2023-09-09T23:36:34.244Z,60.09
2023-09-09T23:39:10.565Z,60.14
2023-09-09T23:41:39.894Z,60.12
2023-09-09T23:44:07.508Z,60.44
2023-09-09T23:46:36.084Z,60.58
2023-09-09T23:49:03.147Z,60.65
2023-09-09T23:51:30.092Z,60.88
2023-09-09T23:53:57.736Z,60.89
2023-09-09T23:56:24.845Z,61.22
2023-09-09T23:58:51.927Z,60.86
